createdAt,value
2022-10-28T00:00:12.838Z,1011.13
2022-10-28T00:01:12.935Z,1011.11
2022-10-28T00:02:12.915Z,1011.08
2022-10-28T00:03:12.802Z,1011.06
2022-10-28T00:04:12.796Z,1011.04
2022-10-28T00:05:12.782Z,1011.01
2022-10-28T00:06:12.772Z,1010.97
2022-10-28T00:07:12.779Z,1010.96
2022-10-28T00:08:12.753Z,1010.96
2022-10-28T00:09:12.737Z,1010.99
2022-10-28T00:10:12.726Z,1011.04
2022-10-28T00:11:12.716Z,1011.11
2022-10-28T00:12:12.709Z,1011.17
2022-10-28T00:13:12.711Z,1011.19
2022-10-28T00:14:12.711Z,1011.17
2022-10-28T00:15:12.672Z,1011.16
2022-10-28T00:16:12.671Z,1011.17
2022-10-28T00:17:12.726Z,1011.19
2022-10-28T00:18:12.643Z,1011.18
2022-10-28T00:19:12.648Z,1011.15
2022-10-28T00:20:12.624Z,1011.13
2022-10-28T00:21:12.614Z,1011.11
2022-10-28T00:22:12.596Z,1011.11
2022-10-28T00:23:12.615Z,1011.09
2022-10-28T00:24:12.581Z,1011.09
2022-10-28T00:25:12.575Z,1011.10
2022-10-28T00:26:12.557Z,1011.11
2022-10-28T00:27:12.539Z,1011.12
2022-10-28T00:28:12.531Z,1011.12
2022-10-28T00:29:12.541Z,1011.11
2022-10-28T00:30:12.509Z,1011.10
2022-10-28T00:31:12.496Z,1011.09
2022-10-28T00:32:12.490Z,1011.10
2022-10-28T00:33:12.473Z,1011.12
2022-10-28T00:34:12.470Z,1011.13
2022-10-28T00:35:12.463Z,1011.13
2022-10-28T00:36:12.446Z,1011.12
2022-10-28T00:37:12.495Z,1011.13
2022-10-28T00:38:12.435Z,1011.16
2022-10-28T00:39:12.422Z,1011.21
2022-10-28T00:40:12.407Z,1011.25
2022-10-28T00:41:12.390Z,1011.26
2022-10-28T00:42:12.383Z,1011.24
2022-10-28T00:43:12.375Z,1011.22
2022-10-28T00:44:12.354Z,1011.20
2022-10-28T00:45:12.348Z,1011.19
2022-10-28T00:46:12.333Z,1011.17
2022-10-28T00:47:12.321Z,1011.14
2022-10-28T00:48:12.318Z,1011.11
2022-10-28T00:49:12.318Z,1011.09
2022-10-28T00:50:12.294Z,1011.08
2022-10-28T00:51:12.284Z,1011.07
2022-10-28T00:52:12.266Z,1011.08
2022-10-28T00:53:12.261Z,1011.09
2022-10-28T00:54:12.250Z,1011.12
2022-10-28T00:55:12.253Z,1011.15
2022-10-28T00:56:12.287Z,1011.17
2022-10-28T00:57:12.214Z,1011.18
2022-10-28T00:58:12.199Z,1011.18
2022-10-28T00:59:12.192Z,1011.18
2022-10-28T01:00:12.179Z,1011.18
2022-10-28T01:01:12.231Z,1011.15
2022-10-28T01:02:12.252Z,1011.11
2022-10-28T01:03:12.150Z,1011.09
2022-10-28T01:04:12.141Z,1011.11
2022-10-28T01:05:12.127Z,1011.11
2022-10-28T01:06:12.119Z,1011.11
2022-10-28T01:07:12.120Z,1011.10
2022-10-28T01:08:12.110Z,1011.06
2022-10-28T01:09:12.187Z,1011.02
2022-10-28T05:01:06.021Z,1009.82
2022-10-28T05:02:07.096Z,1009.80
2022-10-28T05:03:06.958Z,1009.79
2022-10-28T05:04:08.534Z,1009.77
2022-10-28T05:05:06.973Z,1009.77
2022-10-28T05:06:06.937Z,1009.78
2022-10-28T05:07:06.913Z,1009.80
2022-10-28T05:08:06.919Z,1009.83
2022-10-28T05:09:06.896Z,1009.89
2022-10-28T05:10:06.903Z,1009.89
2022-10-28T05:11:07.381Z,1009.90
2022-10-28T05:12:06.862Z,1009.89
2022-10-28T05:13:06.853Z,1009.90
2022-10-28T05:14:06.845Z,1009.91
2022-10-28T05:15:06.878Z,1009.91
2022-10-28T05:16:06.825Z,1009.91
2022-10-28T05:17:06.832Z,1009.90
2022-10-28T05:18:06.806Z,1009.88
2022-10-28T05:19:06.782Z,1009.87
2022-10-28T05:20:06.802Z,1009.87
2022-10-28T05:21:06.768Z,1009.87
2022-10-28T05:22:06.773Z,1009.88
2022-10-28T05:23:06.756Z,1009.87
2022-10-28T05:24:06.735Z,1009.88
2022-10-28T05:25:06.715Z,1009.88
2022-10-28T05:26:06.717Z,1009.89
2022-10-28T05:27:06.700Z,1009.88
2022-10-28T05:28:06.691Z,1009.88
2022-10-28T05:29:06.701Z,1009.89
2022-10-28T05:30:06.673Z,1009.87
2022-10-28T05:31:06.659Z,1009.88
2022-10-28T05:32:06.659Z,1009.86
2022-10-28T05:33:06.645Z,1009.85
2022-10-28T05:34:06.652Z,1009.84
2022-10-28T05:35:06.616Z,1009.83
2022-10-28T05:36:06.602Z,1009.82
2022-10-28T05:37:06.595Z,1009.83
2022-10-28T05:38:06.594Z,1009.83
2022-10-28T05:39:06.576Z,1009.83
2022-10-28T05:40:06.594Z,1009.81
2022-10-28T05:41:06.547Z,1009.81
2022-10-28T05:42:06.538Z,1009.79
2022-10-28T05:43:06.535Z,1009.78
2022-10-28T05:44:06.530Z,1009.76
2022-10-28T05:45:06.519Z,1009.76
2022-10-28T05:46:06.596Z,1009.74
2022-10-28T05:47:06.461Z,1009.74
2022-10-28T05:48:06.425Z,1009.74
2022-10-28T05:49:06.408Z,1009.76
2022-10-28T05:50:06.404Z,1009.77
2022-10-28T05:51:06.387Z,1009.80
2022-10-28T05:52:06.426Z,1009.78
2022-10-28T05:53:06.367Z,1009.76
2022-10-28T05:54:06.381Z,1009.77
2022-10-28T05:55:06.347Z,1009.75
2022-10-28T05:56:06.357Z,1009.76
2022-10-28T05:57:06.363Z,1009.78
2022-10-28T05:58:06.328Z,1009.79
2022-10-28T05:59:06.313Z,1009.82
2022-10-28T06:00:06.293Z,1009.83
2022-10-28T06:01:06.280Z,1009.87
2022-10-28T06:02:06.287Z,1009.89
2022-10-28T06:03:06.261Z,1009.91
2022-10-28T06:04:06.282Z,1009.92
2022-10-28T06:05:06.244Z,1009.91
2022-10-28T06:06:06.241Z,1009.96
2022-10-28T06:07:06.219Z,1009.97
2022-10-28T06:08:06.231Z,1009.97
2022-10-28T06:09:06.192Z,1009.97
2022-10-28T06:10:06.209Z,1009.97
2022-10-28T06:11:04.667Z,1009.96
2022-10-28T06:12:04.626Z,1009.96
2022-10-28T06:13:04.632Z,1009.96
2022-10-28T06:14:04.628Z,1009.95
2022-10-28T06:15:04.629Z,1009.96
2022-10-28T06:16:04.610Z,1009.99
2022-10-28T06:17:04.585Z,1010.02
2022-10-28T06:18:04.569Z,1010.02
2022-10-28T06:19:04.576Z,1010.01
2022-10-28T06:20:04.570Z,1010.01
2022-10-28T06:21:04.553Z,1010.00
2022-10-28T06:22:04.531Z,1010.00
2022-10-28T06:23:04.525Z,1010.00
2022-10-28T06:24:06.585Z,1010.00
2022-10-28T06:25:04.504Z,1009.99
2022-10-28T06:26:04.510Z,1010.01
2022-10-28T06:27:04.971Z,1010.01
2022-10-28T06:28:06.963Z,1009.99
2022-10-28T06:29:04.463Z,1009.96
2022-10-28T06:30:04.466Z,1009.93
2022-10-28T06:31:04.457Z,1009.96
2022-10-28T06:32:04.608Z,1010.00
2022-10-28T06:33:04.425Z,1010.00
2022-10-28T06:34:04.425Z,1009.96
2022-10-28T06:35:04.411Z,1009.97
2022-10-28T06:36:04.397Z,1009.97
2022-10-28T06:37:04.401Z,1009.97
2022-10-28T06:38:08.507Z,1009.98
2022-10-28T06:39:04.368Z,1010.00
2022-10-28T06:40:04.368Z,1010.00
2022-10-28T06:41:04.358Z,1010.01
2022-10-28T06:42:04.334Z,1010.01
2022-10-28T06:43:04.334Z,1010.01
2022-10-28T06:44:04.344Z,1010.01
2022-10-28T06:45:04.338Z,1010.00
2022-10-28T06:46:04.306Z,1009.97
2022-10-28T06:47:05.841Z,1010.00
2022-10-28T06:48:05.814Z,1010.06
2022-10-28T06:49:05.806Z,1010.10
2022-10-28T06:50:05.785Z,1010.13
2022-10-28T06:51:05.803Z,1010.16
2022-10-28T06:52:05.769Z,1010.18
2022-10-28T06:53:05.742Z,1010.18
2022-10-28T06:54:05.733Z,1010.20
2022-10-28T06:55:05.741Z,1010.20
2022-10-28T06:56:05.719Z,1010.20
2022-10-28T06:57:05.896Z,1010.19
2022-10-28T06:58:05.699Z,1010.19
2022-10-28T06:59:05.681Z,1010.17
2022-10-28T07:00:05.672Z,1010.17
2022-10-28T07:01:05.688Z,1010.15
2022-10-28T07:02:05.834Z,1010.13
2022-10-28T07:03:05.700Z,1010.13
2022-10-28T07:04:05.636Z,1010.15
2022-10-28T07:05:05.634Z,1010.19
2022-10-28T07:06:05.656Z,1010.17
2022-10-28T07:07:05.634Z,1010.15
2022-10-28T07:08:05.604Z,1010.17
2022-10-28T07:09:05.588Z,1010.17
2022-10-28T07:10:05.588Z,1010.16
2022-10-28T07:11:05.563Z,1010.16
2022-10-28T07:12:05.792Z,1010.17
2022-10-28T07:13:05.560Z,1010.18
2022-10-28T07:14:05.555Z,1010.18
2022-10-28T07:15:05.527Z,1010.18
2022-10-28T07:16:05.525Z,1010.18
2022-10-28T07:17:05.515Z,1010.19
2022-10-28T07:18:05.532Z,1010.18
2022-10-28T07:19:05.496Z,1010.16
2022-10-28T07:20:05.480Z,1010.16
2022-10-28T07:21:05.476Z,1010.18
2022-10-28T07:22:05.480Z,1010.22
2022-10-28T07:23:05.469Z,1010.27
2022-10-28T07:24:05.435Z,1010.31
2022-10-28T07:25:05.425Z,1010.33
2022-10-28T07:26:05.416Z,1010.34
2022-10-28T07:27:05.402Z,1010.37
2022-10-28T07:28:05.399Z,1010.40
2022-10-28T07:29:05.398Z,1010.40
2022-10-28T07:30:05.431Z,1010.41
2022-10-28T07:31:05.390Z,1010.41
2022-10-28T07:32:05.351Z,1010.40
2022-10-28T07:33:05.358Z,1010.38
2022-10-28T07:34:05.333Z,1010.38
2022-10-28T07:35:05.390Z,1010.38
2022-10-28T07:36:05.312Z,1010.40
2022-10-28T07:37:05.301Z,1010.42
2022-10-28T07:38:05.300Z,1010.43
2022-10-28T07:39:05.289Z,1010.43
2022-10-28T07:40:05.282Z,1010.42
2022-10-28T07:41:05.266Z,1010.42
2022-10-28T07:42:05.251Z,1010.41
2022-10-28T07:43:05.244Z,1010.39
2022-10-28T07:44:05.252Z,1010.41
2022-10-28T07:45:05.280Z,1010.42
2022-10-28T07:46:05.217Z,1010.43
2022-10-28T07:47:05.194Z,1010.41
2022-10-28T07:48:05.211Z,1010.40
2022-10-28T07:49:05.871Z,1010.41
2022-10-28T07:50:05.164Z,1010.43
2022-10-28T07:51:05.193Z,1010.44
2022-10-28T07:52:05.160Z,1010.45
2022-10-28T07:53:05.188Z,1010.44
2022-10-28T07:54:05.115Z,1010.42
2022-10-28T07:55:05.224Z,1010.41
2022-10-28T07:56:05.093Z,1010.39
2022-10-28T07:57:05.109Z,1010.38
2022-10-28T07:58:05.068Z,1010.41
2022-10-28T07:59:05.061Z,1010.41
2022-10-28T08:00:05.052Z,1010.40
2022-10-28T08:01:05.152Z,1010.38
2022-10-28T08:02:05.041Z,1010.35
2022-10-28T08:03:05.058Z,1010.36
2022-10-28T08:04:05.012Z,1010.32
2022-10-28T08:05:05.102Z,1010.29
2022-10-28T08:06:04.984Z,1010.30
2022-10-28T08:07:04.976Z,1010.31
2022-10-28T08:08:04.980Z,1010.37
2022-10-28T08:09:04.951Z,1010.39
2022-10-28T08:10:04.928Z,1010.40
2022-10-28T08:11:04.922Z,1010.42
2022-10-28T08:12:04.905Z,1010.43
2022-10-28T08:13:04.897Z,1010.38
2022-10-28T08:14:04.912Z,1010.34
2022-10-28T08:15:04.909Z,1010.36
2022-10-28T08:16:04.856Z,1010.43
2022-10-28T08:17:04.848Z,1010.46
2022-10-28T08:18:04.895Z,1010.47
2022-10-28T08:19:07.742Z,1010.48
2022-10-28T08:20:04.836Z,1010.48
2022-10-28T08:21:04.793Z,1010.48
2022-10-28T08:22:04.795Z,1010.48
2022-10-28T08:23:06.733Z,1010.46
2022-10-28T08:24:04.787Z,1010.48
2022-10-28T08:25:04.793Z,1010.50
2022-10-28T08:26:04.755Z,1010.49
2022-10-28T08:27:04.724Z,1010.46
2022-10-28T08:28:04.724Z,1010.46
2022-10-28T08:29:04.717Z,1010.47
2022-10-28T08:30:04.746Z,1010.46
2022-10-28T08:31:08.505Z,1010.45
2022-10-28T08:32:04.792Z,1010.44
2022-10-28T08:33:04.663Z,1010.44
2022-10-28T08:34:04.647Z,1010.44
2022-10-28T08:35:04.671Z,1010.46
2022-10-28T08:36:04.655Z,1010.47
2022-10-28T08:37:04.708Z,1010.47
2022-10-28T08:38:04.609Z,1010.45
2022-10-28T08:39:04.609Z,1010.42
2022-10-28T08:40:04.582Z,1010.38
2022-10-28T08:41:04.623Z,1010.37
2022-10-28T08:42:04.559Z,1010.34
2022-10-28T08:43:04.557Z,1010.34
2022-10-28T08:44:04.563Z,1010.33
2022-10-28T08:45:04.552Z,1010.32
2022-10-28T08:46:04.524Z,1010.33
2022-10-28T08:47:04.543Z,1010.36
2022-10-28T08:48:04.503Z,1010.37
2022-10-28T08:49:04.511Z,1010.43
2022-10-28T08:50:04.493Z,1010.48
2022-10-28T08:51:04.495Z,1010.47
2022-10-28T08:52:04.489Z,1010.42
2022-10-28T08:53:04.494Z,1010.41
2022-10-28T08:54:04.435Z,1010.41
2022-10-28T08:55:04.447Z,1010.43
2022-10-28T08:56:04.417Z,1010.42
2022-10-28T08:57:04.435Z,1010.41
2022-10-28T08:58:04.416Z,1010.45
2022-10-28T08:59:04.384Z,1010.47
2022-10-28T09:00:05.057Z,1010.47
2022-10-28T09:01:04.402Z,1010.46
2022-10-28T09:02:04.391Z,1010.45
2022-10-28T09:03:04.357Z,1010.43
2022-10-28T09:04:04.332Z,1010.43
2022-10-28T09:05:04.359Z,1010.43
2022-10-28T09:06:04.310Z,1010.43
2022-10-28T09:07:04.346Z,1010.43
2022-10-28T09:08:04.310Z,1010.44
2022-10-28T09:09:04.292Z,1010.43
2022-10-28T09:10:04.308Z,1010.44
2022-10-28T09:11:04.271Z,1010.46
2022-10-28T09:12:04.253Z,1010.44
2022-10-28T09:13:04.248Z,1010.45
2022-10-28T09:14:04.260Z,1010.46
2022-10-28T09:15:04.232Z,1010.48
2022-10-28T09:16:04.208Z,1010.48
2022-10-28T09:17:04.210Z,1010.49
2022-10-28T09:18:04.180Z,1010.48
2022-10-28T09:19:04.184Z,1010.46
2022-10-28T09:20:04.207Z,1010.46
2022-10-28T09:21:04.157Z,1010.46
2022-10-28T09:22:04.155Z,1010.48
2022-10-28T09:23:04.129Z,1010.49
2022-10-28T09:24:04.126Z,1010.49
2022-10-28T09:25:04.338Z,1010.50
2022-10-28T09:26:04.116Z,1010.50
2022-10-28T09:27:04.113Z,1010.48
2022-10-28T09:28:04.087Z,1010.46
2022-10-28T09:29:04.107Z,1010.46
2022-10-28T09:30:04.056Z,1010.48
2022-10-28T09:31:04.073Z,1010.43
2022-10-28T09:32:04.564Z,1010.43
2022-10-28T09:33:04.040Z,1010.45
2022-10-28T09:34:04.054Z,1010.47
2022-10-28T09:35:04.012Z,1010.47
2022-10-28T09:36:03.989Z,1010.45
2022-10-28T09:37:03.995Z,1010.44
2022-10-28T09:38:04.002Z,1010.41
2022-10-28T09:39:03.964Z,1010.43
2022-10-28T09:40:03.950Z,1010.42
2022-10-28T09:41:03.937Z,1010.42
2022-10-28T09:42:03.945Z,1010.42
2022-10-28T09:43:03.938Z,1010.43
2022-10-28T09:44:03.907Z,1010.44
2022-10-28T09:45:03.916Z,1010.40
2022-10-28T09:46:03.894Z,1010.39
2022-10-28T09:47:03.885Z,1010.36
2022-10-28T09:48:03.881Z,1010.35
2022-10-28T09:49:03.902Z,1010.34
2022-10-28T09:50:03.860Z,1010.33
2022-10-28T09:51:04.455Z,1010.32
2022-10-28T09:52:03.911Z,1010.34
2022-10-28T09:53:03.830Z,1010.34
2022-10-28T09:54:03.797Z,1010.37
2022-10-28T09:55:03.793Z,1010.34
2022-10-28T09:56:03.918Z,1010.35
2022-10-28T09:57:03.871Z,1010.35
2022-10-28T09:58:03.765Z,1010.33
2022-10-28T09:59:03.773Z,1010.34
2022-10-28T10:00:03.754Z,1010.34
2022-10-28T10:01:03.739Z,1010.32
2022-10-28T10:02:04.012Z,1010.32
2022-10-28T10:03:03.779Z,1010.34
2022-10-28T10:04:03.688Z,1010.37
2022-10-28T10:05:03.726Z,1010.41
2022-10-28T10:06:03.677Z,1010.42
2022-10-28T10:07:03.684Z,1010.42
2022-10-28T10:08:03.653Z,1010.39
2022-10-28T10:09:03.692Z,1010.37
2022-10-28T10:11:03.637Z,1010.41
2022-10-28T10:12:03.661Z,1010.40
2022-10-28T10:13:03.631Z,1010.44
2022-10-28T10:14:03.579Z,1010.44
2022-10-28T10:15:03.577Z,1010.45
2022-10-28T10:16:03.555Z,1010.42
2022-10-28T10:18:19.825Z,1010.38
2022-10-28T10:19:20.774Z,1010.37
2022-10-28T10:20:20.766Z,1010.37
2022-10-28T10:21:20.778Z,1010.37
2022-10-28T10:22:20.760Z,1010.38
2022-10-28T10:23:20.748Z,1010.37
2022-10-28T10:24:20.744Z,1010.35
2022-10-28T10:25:20.731Z,1010.33
2022-10-28T10:26:20.697Z,1010.32
2022-10-28T10:27:20.720Z,1010.33
2022-10-28T10:28:20.682Z,1010.30
2022-10-28T10:29:20.686Z,1010.29
2022-10-28T10:30:20.675Z,1010.27
2022-10-28T10:31:20.675Z,1010.30
2022-10-28T10:32:20.645Z,1010.27
2022-10-28T10:33:20.652Z,1010.28
2022-10-28T10:34:20.609Z,1010.29
2022-10-28T10:35:20.627Z,1010.29
2022-10-28T10:36:20.602Z,1010.29
2022-10-28T10:37:20.583Z,1010.26
2022-10-28T10:38:20.586Z,1010.24
2022-10-28T10:39:20.617Z,1010.19
2022-10-28T10:40:20.552Z,1010.16
2022-10-28T10:41:20.549Z,1010.15
2022-10-28T10:42:20.542Z,1010.13
2022-10-28T10:43:20.528Z,1010.12
2022-10-28T10:44:20.531Z,1010.14
2022-10-28T10:45:20.528Z,1010.14
2022-10-28T10:46:20.532Z,1010.14
2022-10-28T10:47:20.511Z,1010.12
2022-10-28T10:48:20.478Z,1010.12
2022-10-28T10:49:20.460Z,1010.12
2022-10-28T10:50:20.551Z,1010.12
2022-10-28T10:51:20.465Z,1010.10
2022-10-28T10:52:20.428Z,1010.10
2022-10-28T10:53:20.601Z,1010.08
2022-10-28T10:54:20.406Z,1010.05
2022-10-28T10:55:20.399Z,1010.05
2022-10-28T10:56:20.431Z,1010.04
2022-10-28T10:57:20.426Z,1010.04
2022-10-28T10:58:20.378Z,1010.05
2022-10-28T10:59:20.367Z,1010.05
2022-10-28T11:00:20.340Z,1010.03
2022-10-28T11:01:20.510Z,1010.04
2022-10-28T11:02:20.625Z,1010.00
2022-10-28T11:03:20.327Z,1009.99
2022-10-28T11:04:20.297Z,1009.97
2022-10-28T11:05:22.955Z,1009.96
2022-10-28T11:06:24.638Z,1009.94
2022-10-28T11:07:20.271Z,1009.94
2022-10-28T11:08:20.266Z,1009.95
2022-10-28T11:09:20.241Z,1009.95
2022-10-28T11:10:20.235Z,1009.95
2022-10-28T11:11:20.228Z,1009.95
2022-10-28T11:12:20.221Z,1009.93
2022-10-28T11:13:20.239Z,1009.92
2022-10-28T11:14:20.198Z,1009.92
2022-10-28T11:15:20.185Z,1009.94
2022-10-28T11:16:20.165Z,1009.98
2022-10-28T11:17:20.260Z,1009.94
2022-10-28T11:18:26.163Z,1009.91
2022-10-28T11:19:20.135Z,1009.89
2022-10-28T11:20:20.137Z,1009.86
2022-10-28T11:21:20.164Z,1009.87
2022-10-28T11:22:20.112Z,1009.84
2022-10-28T11:23:20.103Z,1009.84
2022-10-28T11:24:20.091Z,1009.81
2022-10-28T11:25:20.067Z,1009.79
2022-10-28T11:26:20.097Z,1009.76
2022-10-28T11:27:20.049Z,1009.74
2022-10-28T11:28:20.049Z,1009.71
2022-10-28T11:29:20.040Z,1009.70
2022-10-28T11:30:20.027Z,1009.71
2022-10-28T11:31:20.009Z,1009.68
2022-10-28T11:32:20.021Z,1009.68
2022-10-28T11:33:35.605Z,1009.66
2022-10-28T11:34:20.000Z,1009.65
2022-10-28T11:35:19.975Z,1009.66
2022-10-28T11:36:19.967Z,1009.66
2022-10-28T11:37:19.945Z,1009.66
2022-10-28T11:38:19.935Z,1009.66
2022-10-28T11:39:19.957Z,1009.62
2022-10-28T11:40:19.952Z,1009.58
2022-10-28T11:41:19.902Z,1009.57
2022-10-28T11:42:19.892Z,1009.57
2022-10-28T11:43:19.905Z,1009.55
2022-10-28T11:44:19.955Z,1009.56
2022-10-28T11:45:19.937Z,1009.54
2022-10-28T11:46:19.849Z,1009.52
2022-10-28T11:47:19.840Z,1009.48
2022-10-28T11:48:19.846Z,1009.46
2022-10-28T11:49:19.840Z,1009.42
2022-10-28T11:50:19.809Z,1009.42
2022-10-28T11:51:19.803Z,1009.36
2022-10-28T11:52:19.781Z,1009.35
2022-10-28T11:53:19.791Z,1009.34
2022-10-28T11:54:19.774Z,1009.34
2022-10-28T11:55:19.758Z,1009.35
2022-10-28T11:56:19.740Z,1009.35
2022-10-28T11:57:19.733Z,1009.33
2022-10-28T11:58:19.720Z,1009.34
2022-10-28T11:59:19.705Z,1009.32
2022-10-28T12:00:19.717Z,1009.30
2022-10-28T12:01:19.729Z,1009.30
2022-10-28T12:02:19.850Z,1009.31
2022-10-28T12:03:19.759Z,1009.30
2022-10-28T12:04:19.657Z,1009.31
2022-10-28T12:05:19.645Z,1009.31
2022-10-28T12:06:19.626Z,1009.32
2022-10-28T12:07:19.687Z,1009.31
2022-10-28T12:08:19.618Z,1009.29
2022-10-28T12:09:19.631Z,1009.30
2022-10-28T12:10:19.588Z,1009.28
2022-10-28T12:11:19.583Z,1009.31
2022-10-28T12:12:19.566Z,1009.34
2022-10-28T12:13:19.583Z,1009.35
2022-10-28T12:14:19.576Z,1009.35
2022-10-28T12:15:19.544Z,1009.32
2022-10-28T12:16:19.544Z,1009.29
2022-10-28T12:17:19.518Z,1009.28
2022-10-28T12:18:19.513Z,1009.27
2022-10-28T12:19:19.512Z,1009.25
2022-10-28T12:20:19.485Z,1009.22
2022-10-28T12:21:19.587Z,1009.20
2022-10-28T12:22:19.485Z,1009.17
2022-10-28T12:23:19.494Z,1009.15
2022-10-28T12:24:19.444Z,1009.13
2022-10-28T12:25:19.514Z,1009.13
2022-10-28T12:26:19.419Z,1009.13
2022-10-28T12:27:19.417Z,1009.12
2022-10-28T12:28:19.418Z,1009.13
2022-10-28T12:29:19.391Z,1009.11
2022-10-28T12:30:19.379Z,1009.10
2022-10-28T12:31:19.396Z,1009.11
2022-10-28T12:32:19.363Z,1009.09
2022-10-28T12:33:19.358Z,1009.08
2022-10-28T12:34:19.351Z,1009.05
2022-10-28T12:35:19.333Z,1009.02
2022-10-28T12:36:19.311Z,1009.02
2022-10-28T12:37:19.306Z,1009.01
2022-10-28T12:38:19.287Z,1009.00
2022-10-28T12:39:19.299Z,1008.99
2022-10-28T12:40:19.274Z,1008.97
2022-10-28T12:41:19.275Z,1008.94
2022-10-28T12:42:19.245Z,1008.91
2022-10-28T12:43:19.237Z,1008.91
2022-10-28T12:44:19.228Z,1008.89
2022-10-28T12:45:19.221Z,1008.91
2022-10-28T12:46:19.211Z,1008.89
2022-10-28T12:47:19.232Z,1008.88
2022-10-28T12:48:19.189Z,1008.89
2022-10-28T12:49:19.176Z,1008.90
2022-10-28T12:50:19.165Z,1008.88
2022-10-28T12:51:19.157Z,1008.87
2022-10-28T12:52:19.138Z,1008.84
2022-10-28T12:53:19.146Z,1008.85
2022-10-28T12:54:19.120Z,1008.83
2022-10-28T12:55:19.130Z,1008.79
2022-10-28T12:56:19.115Z,1008.78
2022-10-28T12:57:19.105Z,1008.78
2022-10-28T12:58:19.088Z,1008.79
2022-10-28T12:59:19.066Z,1008.80
2022-10-28T13:00:19.053Z,1008.79
2022-10-28T13:01:19.265Z,1008.77
2022-10-28T13:02:19.381Z,1008.78
2022-10-28T13:03:19.027Z,1008.79
2022-10-28T13:04:19.023Z,1008.80
2022-10-28T13:05:19.007Z,1008.80
2022-10-28T13:06:19.018Z,1008.79
2022-10-28T13:07:18.987Z,1008.78
2022-10-28T13:08:18.997Z,1008.78
2022-10-28T13:09:18.974Z,1008.76
2022-10-28T13:10:19.028Z,1008.77
2022-10-28T13:11:18.944Z,1008.78
2022-10-28T13:12:18.976Z,1008.79
2022-10-28T13:13:18.975Z,1008.81
2022-10-28T13:14:18.911Z,1008.80
2022-10-28T13:15:18.920Z,1008.84
2022-10-28T13:16:18.889Z,1008.85
2022-10-28T13:17:18.879Z,1008.85
2022-10-28T13:18:18.884Z,1008.86
2022-10-28T13:19:18.862Z,1008.87
2022-10-28T13:20:18.864Z,1008.87
2022-10-28T13:21:18.839Z,1008.86
2022-10-28T13:22:18.890Z,1008.85
2022-10-28T13:23:18.828Z,1008.84
2022-10-28T13:24:18.805Z,1008.85
2022-10-28T13:25:18.792Z,1008.84
2022-10-28T13:26:18.866Z,1008.84
2022-10-28T13:27:18.785Z,1008.85
2022-10-28T13:28:18.776Z,1008.86
2022-10-28T13:29:18.772Z,1008.87
2022-10-28T13:30:18.737Z,1008.88
2022-10-28T13:31:18.733Z,1008.88
2022-10-28T13:32:18.713Z,1008.87
2022-10-28T13:33:18.712Z,1008.85
2022-10-28T13:34:18.699Z,1008.85
2022-10-28T13:35:18.708Z,1008.83
2022-10-28T13:36:18.673Z,1008.82
2022-10-28T13:37:18.664Z,1008.82
2022-10-28T13:38:18.654Z,1008.83
2022-10-28T13:39:18.635Z,1008.82
2022-10-28T13:40:18.626Z,1008.81
2022-10-28T13:41:18.631Z,1008.76
2022-10-28T13:42:18.611Z,1008.72
2022-10-28T13:43:18.600Z,1008.69
2022-10-28T13:44:18.623Z,1008.69
2022-10-28T13:45:18.576Z,1008.68
2022-10-28T13:46:18.592Z,1008.68
2022-10-28T13:47:18.557Z,1008.68
2022-10-28T13:48:18.548Z,1008.66
2022-10-28T13:49:18.563Z,1008.66
2022-10-28T13:50:18.535Z,1008.69
2022-10-28T13:51:18.516Z,1008.72
2022-10-28T13:52:18.514Z,1008.72
2022-10-28T13:53:18.489Z,1008.71
2022-10-28T13:54:18.484Z,1008.72
2022-10-28T13:55:18.481Z,1008.74
2022-10-28T13:56:18.497Z,1008.74
2022-10-28T13:57:18.549Z,1008.73
2022-10-28T13:58:18.449Z,1008.70
2022-10-28T13:59:18.433Z,1008.68
2022-10-28T14:00:18.502Z,1008.69
2022-10-28T14:01:18.594Z,1008.70
2022-10-28T14:02:34.687Z,1008.68
2022-10-28T14:03:18.526Z,1008.64
2022-10-28T14:04:18.378Z,1008.61
2022-10-28T14:05:18.382Z,1008.60
2022-10-28T14:06:18.426Z,1008.59
2022-10-28T14:07:18.345Z,1008.58
2022-10-28T14:08:18.335Z,1008.57
2022-10-28T14:09:18.317Z,1008.60
2022-10-28T14:10:20.602Z,1008.67
2022-10-28T14:11:18.325Z,1008.71
2022-10-28T14:12:18.289Z,1008.71
2022-10-28T14:13:18.281Z,1008.69
2022-10-28T14:14:18.291Z,1008.65
2022-10-28T14:15:18.270Z,1008.62
2022-10-28T14:16:18.245Z,1008.60
2022-10-28T14:17:18.261Z,1008.61
2022-10-28T14:19:18.228Z,1008.67
2022-10-28T14:20:18.212Z,1008.67
2022-10-28T14:21:18.190Z,1008.70
2022-10-28T14:22:18.223Z,1008.71
2022-10-28T14:23:18.189Z,1008.72
2022-10-28T14:24:18.166Z,1008.73
2022-10-28T14:25:20.022Z,1008.74
2022-10-28T14:26:18.143Z,1008.75
2022-10-28T14:27:18.137Z,1008.76
2022-10-28T14:28:18.132Z,1008.75
2022-10-28T14:29:18.133Z,1008.76
2022-10-28T14:30:18.107Z,1008.76
2022-10-28T14:31:18.196Z,1008.74
2022-10-28T14:32:18.198Z,1008.72
2022-10-28T14:33:18.065Z,1008.69
2022-10-28T14:34:18.049Z,1008.68
2022-10-28T14:35:18.067Z,1008.67
2022-10-28T14:36:18.035Z,1008.69
2022-10-28T14:37:18.019Z,1008.71
2022-10-28T14:38:18.014Z,1008.73
2022-10-28T14:39:18.001Z,1008.74
2022-10-28T14:40:18.001Z,1008.74
2022-10-28T14:41:17.991Z,1008.73
2022-10-28T14:42:18.025Z,1008.73
2022-10-28T14:43:17.960Z,1008.72
2022-10-28T14:44:17.949Z,1008.71
2022-10-28T14:45:17.936Z,1008.72
2022-10-28T14:46:17.948Z,1008.74
2022-10-28T14:47:17.913Z,1008.75
2022-10-28T14:48:17.916Z,1008.75
2022-10-28T14:49:17.899Z,1008.72
2022-10-28T14:50:17.879Z,1008.69
2022-10-28T14:51:17.865Z,1008.67
2022-10-28T14:52:17.874Z,1008.69
2022-10-28T14:53:18.147Z,1008.70
2022-10-28T14:54:17.843Z,1008.71
2022-10-28T14:55:17.824Z,1008.72
2022-10-28T14:56:17.863Z,1008.71
2022-10-28T14:57:17.807Z,1008.71
2022-10-28T14:58:17.826Z,1008.71
2022-10-28T14:59:17.787Z,1008.70
2022-10-28T15:00:17.773Z,1008.68
2022-10-28T15:01:17.999Z,1008.69
2022-10-28T15:02:17.902Z,1008.69
2022-10-28T15:03:17.906Z,1008.69
2022-10-28T15:04:17.747Z,1008.70
2022-10-28T15:05:17.720Z,1008.71
2022-10-28T15:06:17.716Z,1008.72
2022-10-28T15:07:17.699Z,1008.74
2022-10-28T15:08:17.733Z,1008.75
2022-10-28T15:09:17.682Z,1008.77
2022-10-28T15:10:17.715Z,1008.77
2022-10-28T15:11:17.660Z,1008.79
2022-10-28T15:12:17.656Z,1008.80
2022-10-28T15:13:17.639Z,1008.80
2022-10-28T15:14:17.650Z,1008.78
2022-10-28T15:15:17.616Z,1008.77
2022-10-28T15:16:17.627Z,1008.75
2022-10-28T15:17:17.592Z,1008.76
2022-10-28T15:18:17.587Z,1008.76
2022-10-28T15:19:17.576Z,1008.77
2022-10-28T15:20:17.601Z,1008.79
2022-10-28T15:21:17.610Z,1008.78
2022-10-28T15:22:17.550Z,1008.79
2022-10-28T15:23:17.540Z,1008.77
2022-10-28T15:24:17.518Z,1008.76
2022-10-28T15:25:17.540Z,1008.76
2022-10-28T15:26:17.506Z,1008.77
2022-10-28T15:27:17.491Z,1008.78
2022-10-28T15:28:17.478Z,1008.78
2022-10-28T15:29:17.477Z,1008.78
2022-10-28T15:30:17.491Z,1008.79
2022-10-28T15:31:18.257Z,1008.81
2022-10-28T15:32:17.435Z,1008.82
2022-10-28T15:33:17.438Z,1008.83
2022-10-28T15:34:21.925Z,1008.83
2022-10-28T15:35:17.410Z,1008.85
2022-10-28T15:36:18.482Z,1008.85
2022-10-28T15:37:17.393Z,1008.88
2022-10-28T15:38:17.377Z,1008.86
2022-10-28T15:39:17.404Z,1008.84
2022-10-28T15:40:17.351Z,1008.83
2022-10-28T15:41:17.471Z,1008.86
2022-10-28T15:42:17.330Z,1008.89
2022-10-28T15:43:17.373Z,1008.91
2022-10-28T15:44:17.305Z,1008.89
2022-10-28T15:45:17.289Z,1008.85
2022-10-28T15:46:17.301Z,1008.84
2022-10-28T15:47:17.292Z,1008.84
2022-10-28T15:48:17.281Z,1008.83
2022-10-28T15:49:17.275Z,1008.83
2022-10-28T15:50:17.240Z,1008.80
2022-10-28T15:51:17.237Z,1008.78
2022-10-28T15:52:17.235Z,1008.80
2022-10-28T15:53:17.210Z,1008.81
2022-10-28T15:54:17.205Z,1008.85
2022-10-28T15:55:17.206Z,1008.87
2022-10-28T15:56:17.183Z,1008.89
2022-10-28T15:57:17.171Z,1008.88
2022-10-28T15:58:19.336Z,1008.87
2022-10-28T15:59:17.166Z,1008.85